Time;durP1;ratioP1;P1;durP2;ratioP2;P2;SDS_P1;SDS_P2;PMS_P1;PMS_P2;Temp;Humidity;BMP_temperature;BMP_pressure;BME280_temperature;BME280_humidity;BME280_pressure;Samples;Min_cycle;Max_cycle;Signal;HPM_P1;HPM_P2
2022/05/18 04:43:58;;;;;;;;;;;;;;;21.17;60.42;97349.94;4238011;27;10374;-71
2022/05/18 04:46:01;;;;;;;;;;;;;;;21.40;60.09;97352.44;4229571;28;5672;-70
2022/05/18 04:48:05;;;;;;;;;;;;;;;21.59;59.88;97352.97;4215435;28;5851;-70
2022/05/18 04:50:08;;;;;;;;;;;;;;;21.75;59.51;97356.69;4215284;28;5689;-71
2022/05/18 04:52:11;;;;;;;;;;;;;;;21.88;59.44;97363.56;4225334;28;6490;-71
2022/05/18 04:54:14;;;;;;;;;;;;;;;21.97;59.14;97362.88;4228427;28;5693;-71
2022/05/18 04:56:18;;;;;;;;;;;;;;;22.05;59.02;97364.28;4231790;28;5684;-71
2022/05/18 04:58:21;;;;;;;;;;;;;;;22.13;59.15;97371.13;4227002;28;5693;-80
2022/05/18 05:00:25;;;;;;;;;;;;;;;22.19;58.76;97365.53;4219103;28;5743;-66
2022/05/18 05:02:28;;;;;;;;;;;;;;;22.24;59.06;97368.28;4221574;28;5705;-73
2022/05/18 05:04:32;;;;;;;;;;;;;;;22.29;58.83;97376.41;4221405;28;5866;-73
2022/05/18 05:06:34;;;;;;;;;;;;;;;22.33;58.44;97376.75;4229457;28;5685;-73
2022/05/18 05:08:38;;;;;;;;;;;;;;;22.40;58.48;97379.22;4217837;28;5686;-73
2022/05/18 05:10:41;;;;;;;;;;;;;;;22.42;58.44;97383.28;4221381;28;6362;-73
2022/05/18 05:12:45;;;;;;;;;;;;;;;22.45;58.47;97373.91;4223152;28;5775;-73
2022/05/18 05:14:48;;;;;;;;;;;;;;;22.46;58.40;97381.72;4220903;28;5668;-70
2022/05/18 05:16:52;;;;;;;;;;;;;;;22.48;58.43;97371.50;4220333;28;5689;-72
2022/05/18 05:18:55;;;;;;;;;;;;;;;22.49;58.29;97377.69;4217696;28;5840;-73
2022/05/18 05:20:58;;;;;;;;;;;;;;;22.49;58.01;97373.13;4226502;28;5749;-73
2022/05/18 05:23:01;;;;;;;;;;;;;;;22.48;57.88;97376.88;4214557;28;5784;-73
2022/05/18 05:25:04;;;;;;;;;;;;;;;22.49;57.64;97383.91;4222434;28;5789;-73
2022/05/18 05:27:07;;;;;;;;;;;;;;;22.51;57.76;97384.44;4229412;28;5769;-73
2022/05/18 05:29:12;;;;;;;;;;;;;;;22.55;57.91;97379.38;4228626;28;5803;-74
2022/05/18 05:31:15;;;;;;;;;;;;;;;22.56;57.84;97381.81;4220179;28;5836;-73
2022/05/18 05:33:19;;;;;;;;;;;;;;;22.59;57.69;97392.06;4222169;28;5720;-73
2022/05/18 05:35:22;;;;;;;;;;;;;;;22.64;57.46;97381.31;4218700;28;5762;-71
2022/05/18 05:37:26;;;;;;;;;;;;;;;22.70;57.08;97392.19;4218760;28;5778;-73
2022/05/18 05:39:29;;;;;;;;;;;;;;;22.82;56.92;97392.81;4230574;28;5687;-73
2022/05/18 05:41:33;;;;;;;;;;;;;;;22.94;57.06;97380.00;4231334;28;6440;-73
2022/05/18 05:43:36;;;;;;;;;;;;;;;23.05;56.65;97395.19;4210059;28;5701;-73
2022/05/18 05:45:40;;;;;;;;;;;;;;;23.13;56.66;97392.03;4203113;28;5785;-70
2022/05/18 05:47:43;;;;;;;;;;;;;;;23.22;56.42;97395.88;4202971;28;5954;-71
2022/05/18 05:49:55;;;;;;;;;;;;;;;23.31;56.46;97392.66;4202711;28;7682;-71
2022/05/18 05:51:58;;;;;;;;;;;;;;;23.41;56.27;97392.72;4201772;28;5694;-71
2022/05/18 05:54:01;;;;;;;;;;;;;;;23.50;56.17;97391.19;4209093;28;5697;-72
2022/05/18 05:56:04;;;;;;;;;;;;;;;23.59;55.79;97386.94;4211799;28;5874;-73
2022/05/18 05:58:07;;;;;;;;;;;;;;;23.70;55.83;97393.22;4209354;28;5689;-73
2022/05/18 06:00:11;;;;;;;;;;;;;;;23.79;55.65;97388.94;4216729;28;5723;-72
2022/05/18 06:02:15;;;;;;;;;;;;;;;23.84;55.12;97391.66;4206773;28;5795;-72
2022/05/18 06:04:19;;;;;;;;;;;;;;;23.90;55.46;97392.47;4204442;28;5680;-73
2022/05/18 06:06:24;;;;;;;;;;;;;;;23.96;55.41;97391.44;4206631;28;5685;-72
2022/05/18 06:08:27;;;;;;;;;;;;;;;24.03;55.31;97389.31;4202540;28;5713;-72
2022/05/18 06:10:30;;;;;;;;;;;;;;;24.09;55.26;97389.03;4201219;28;5697;-74
2022/05/18 06:12:34;;;;;;;;;;;;;;;24.15;54.98;97389.88;4202452;28;5749;-73
2022/05/18 06:14:37;;;;;;;;;;;;;;;24.18;55.10;97385.84;4202965;28;5804;-72
2022/05/18 06:16:40;;;;;;;;;;;;;;;24.20;55.04;97381.78;4202519;28;5698;-72
2022/05/18 06:18:43;;;;;;;;;;;;;;;24.24;54.98;97380.19;4202251;28;5773;-72
2022/05/18 06:20:47;;;;;;;;;;;;;;;24.27;55.00;97384.25;4213380;28;5789;-73
2022/05/18 06:22:51;;;;;;;;;;;;;;;24.31;54.87;97380.75;4210856;28;5701;-72
2022/05/18 06:24:54;;;;;;;;;;;;;;;24.37;54.42;97377.00;4202582;28;5804;-72
2022/05/18 06:26:58;;;;;;;;;;;;;;;24.42;54.56;97376.19;4202483;28;8447;-72
2022/05/18 06:29:01;;;;;;;;;;;;;;;24.48;54.29;97380.53;4202518;28;5689;-73
2022/05/18 06:31:05;;;;;;;;;;;;;;;24.52;54.50;97375.41;4202571;28;5692;-72
2022/05/18 06:33:10;;;;;;;;;;;;;;;24.55;54.48;97382.97;4205245;28;6968;-70
2022/05/18 06:35:12;;;;;;;;;;;;;;;24.59;54.25;97386.78;4211975;28;5856;-66
2022/05/18 06:37:16;;;;;;;;;;;;;;;24.65;53.94;97385.69;4211662;28;5716;-72
2022/05/18 06:39:22;;;;;;;;;;;;;;;24.67;54.00;97383.50;4201966;28;5791;-73
2022/05/18 06:41:25;;;;;;;;;;;;;;;24.70;53.95;97385.69;4202075;28;5681;-72
2022/05/18 06:43:29;;;;;;;;;;;;;;;24.72;53.88;97380.84;4201712;28;5788;-72
2022/05/18 06:45:32;;;;;;;;;;;;;;;24.73;53.89;97381.66;4202139;28;5681;-72
2022/05/18 06:47:35;;;;;;;;;;;;;;;24.72;53.50;97386.25;4201908;28;5689;-72
2022/05/18 06:49:38;;;;;;;;;;;;;;;24.71;53.90;97387.31;4201802;28;5966;-72
2022/05/18 06:51:43;;;;;;;;;;;;;;;24.71;53.77;97379.22;4202016;28;5706;-72
2022/05/18 06:53:46;;;;;;;;;;;;;;;24.73;53.74;97381.66;4201848;28;5693;-72
2022/05/18 06:55:50;;;;;;;;;;;;;;;24.71;53.26;97376.50;4201211;28;5702;-72
2022/05/18 06:58:07;;;;;;;;;;;;;;;24.68;53.55;97382.44;4202111;28;5786;-72
2022/05/18 07:00:11;;;;;;;;;;;;;;;24.67;53.08;97386.22;4201975;28;6355;-72
2022/05/18 07:02:14;;;;;;;;;;;;;;;24.63;53.21;97382.44;4201751;28;5750;-72
2022/05/18 07:04:17;;;;;;;;;;;;;;;24.60;53.21;97377.59;4201664;28;5690;-72
2022/05/18 07:06:24;;;;;;;;;;;;;;;24.56;53.52;97381.88;4201712;28;5694;-72
2022/05/18 07:08:27;;;;;;;;;;;;;;;24.51;53.58;97376.47;4202118;28;5693;-72
2022/05/18 07:10:30;;;;;;;;;;;;;;;24.45;53.16;97377.53;4201694;28;5701;-72
2022/05/18 07:12:37;;;;;;;;;;;;;;;24.39;53.28;97385.66;4201755;28;7703;-72
2022/05/18 07:14:42;;;;;;;;;;;;;;;24.34;52.84;97380.22;4201576;28;5817;-72
2022/05/18 07:16:46;;;;;;;;;;;;;;;24.28;53.06;97378.56;4201610;28;5709;-72
2022/05/18 07:18:49;;;;;;;;;;;;;;;24.24;52.94;97382.91;4201461;28;5686;-72
2022/05/18 07:20:53;;;;;;;;;;;;;;;24.20;52.63;97384.47;4201726;28;5705;-72
2022/05/18 07:22:56;;;;;;;;;;;;;;;24.20;52.90;97378.28;4201463;28;5697;-72
2022/05/18 07:24:59;;;;;;;;;;;;;;;24.23;52.80;97377.72;4200325;28;5705;-72
2022/05/18 07:27:02;;;;;;;;;;;;;;;24.22;52.40;97385.03;4201594;28;5760;-72
2022/05/18 07:29:07;;;;;;;;;;;;;;;24.18;52.62;97381.25;4201279;28;5781;-72
2022/05/18 07:31:11;;;;;;;;;;;;;;;24.17;52.36;97379.63;4201626;28;5708;-72
2022/05/18 07:33:34;;;;;;;;;;;;;;;24.15;52.02;97387.19;4200506;28;5773;-72
2022/05/18 07:35:37;;;;;;;;;;;;;;;24.13;52.20;97378.53;4199668;28;5693;-72
2022/05/18 07:37:40;;;;;;;;;;;;;;;24.08;52.00;97379.31;4201234;28;5693;-72
2022/05/18 07:39:49;;;;;;;;;;;;;;;24.06;51.89;97380.66;4201446;28;5724;-72
2022/05/18 07:41:52;;;;;;;;;;;;;;;24.05;51.88;97381.75;4201349;28;5807;-72
2022/05/18 07:43:55;;;;;;;;;;;;;;;24.04;52.20;97382.81;4201019;28;5986;-72
2022/05/18 07:45:59;;;;;;;;;;;;;;;24.02;52.18;97380.38;4199874;28;5740;-72
2022/05/18 07:48:02;;;;;;;;;;;;;;;24.04;51.68;97380.13;4201105;28;5693;-71
2022/05/18 07:50:07;;;;;;;;;;;;;;;24.04;51.76;97382.81;4200031;28;5902;-72
2022/05/18 07:52:10;;;;;;;;;;;;;;;24.05;51.81;97382.56;4201301;28;5765;-72
2022/05/18 07:54:14;;;;;;;;;;;;;;;24.08;51.68;97382.00;4199962;28;6480;-73
2022/05/18 07:56:17;;;;;;;;;;;;;;;24.09;51.75;97385.53;4201238;28;5677;-72
2022/05/18 07:58:21;;;;;;;;;;;;;;;24.08;51.48;97387.41;4201093;28;6485;-72
2022/05/18 08:00:25;;;;;;;;;;;;;;;24.10;51.40;97379.03;4201195;28;5795;-72
2022/05/18 08:02:32;;;;;;;;;;;;;;;24.09;51.37;97382.81;4201095;28;5693;-72
2022/05/18 08:04:35;;;;;;;;;;;;;;;24.05;50.99;97376.34;4200583;28;5879;-72
2022/05/18 08:06:39;;;;;;;;;;;;;;;24.08;51.09;97375.81;4200609;28;5677;-72
2022/05/18 08:08:42;;;;;;;;;;;;;;;24.09;51.25;97380.13;4199687;28;5817;-72
2022/05/18 08:15:29;;;;;;;;;;;;;;;24.14;50.83;97368.53;4200697;28;5743;-72
2022/05/18 08:17:33;;;;;;;;;;;;;;;24.15;51.17;97370.97;4199211;28;5817;-73
2022/05/18 08:19:36;;;;;;;;;;;;;;;24.14;51.09;97369.34;4200573;28;5741;-72
2022/05/18 08:21:39;;;;;;;;;;;;;;;24.14;50.81;97365.84;4199669;28;5859;-72
2022/05/18 08:23:43;;;;;;;;;;;;;;;24.16;50.94;97372.59;4200923;28;5821;-72
2022/05/18 08:25:47;;;;;;;;;;;;;;;24.19;50.95;97366.66;4200781;28;5764;-72
2022/05/18 08:27:50;;;;;;;;;;;;;;;24.20;50.74;97368.28;4200760;28;5701;-72
2022/05/18 08:30:01;;;;;;;;;;;;;;;24.21;50.76;97372.59;4200725;28;5778;-72
2022/05/18 08:32:05;;;;;;;;;;;;;;;24.25;50.30;97372.91;4200348;28;5913;-72
2022/05/18 08:34:09;;;;;;;;;;;;;;;24.22;50.52;97363.41;4200637;28;5693;-72
2022/05/18 08:36:14;;;;;;;;;;;;;;;24.24;50.04;97369.38;4200848;28;5681;-72
2022/05/18 08:38:19;;;;;;;;;;;;;;;24.21;50.46;97364.50;4200614;28;6374;-72
2022/05/18 08:40:38;;;;;;;;;;;;;;;24.17;50.49;97368.81;4199725;28;5776;-72
2022/05/18 08:42:41;;;;;;;;;;;;;;;24.15;50.00;97365.56;4200315;28;5693;-72
2022/05/18 08:44:45;;;;;;;;;;;;;;;24.15;50.07;97360.16;4200929;28;5709;-72
2022/05/18 08:46:55;;;;;;;;;;;;;;;24.16;50.40;97364.50;4200800;28;5813;-72
2022/05/18 08:49:11;;;;;;;;;;;;;;;24.16;49.83;97361.78;4200137;28;5689;-72
2022/05/18 08:51:38;;;;;;;;;;;;;;;24.18;50.04;97359.63;4200735;28;5693;-72
2022/05/18 08:53:51;;;;;;;;;;;;;;;24.22;49.96;97355.31;4200709;28;5701;-72
2022/05/18 08:56:08;;;;;;;;;;;;;;;24.23;49.54;97350.72;4200600;28;5704;-72
2022/05/18 08:58:15;;;;;;;;;;;;;;;24.25;49.40;97356.69;4200400;28;5705;-72
2022/05/18 09:00:22;;;;;;;;;;;;;;;24.25;49.71;97353.97;4200683;28;6364;-72
2022/05/18 09:02:30;;;;;;;;;;;;;;;24.27;49.49;97351.81;4200494;28;5704;-72
2022/05/18 09:04:45;;;;;;;;;;;;;;;24.27;49.53;97352.63;4200141;28;5142;-72
2022/05/18 09:07:14;;;;;;;;;;;;;;;24.30;49.67;97354.81;4200575;28;5694;-72
2022/05/18 09:11:46;;;;;;;;;;;;;;;24.33;49.41;97348.88;4200418;28;5713;-72
2022/05/18 09:13:49;;;;;;;;;;;;;;;24.35;49.52;97349.44;4199126;28;5686;-72
2022/05/18 09:16:00;;;;;;;;;;;;;;;24.36;49.28;97353.78;4200437;28;5796;-72
2022/05/18 09:18:13;;;;;;;;;;;;;;;24.38;49.50;97351.59;4200586;28;5690;-73
2022/05/18 09:20:21;;;;;;;;;;;;;;;24.39;49.29;97339.72;4203223;28;5681;-72
2022/05/18 09:22:47;;;;;;;;;;;;;;;24.42;49.64;97346.47;4203474;28;5681;-72
2022/05/18 09:25:07;;;;;;;;;;;;;;;24.42;49.28;97340.25;4203314;28;5784;-72
2022/05/18 09:27:33;;;;;;;;;;;;;;;24.44;49.38;97340.78;4203431;28;5689;-72
2022/05/18 09:29:43;;;;;;;;;;;;;;;24.45;48.89;97340.50;4203535;28;5704;-72
2022/05/18 09:32:05;;;;;;;;;;;;;;;24.47;49.09;97345.69;4203513;28;6131;-72
2022/05/18 09:34:23;;;;;;;;;;;;;;;24.47;49.40;97334.88;4202404;28;5807;-72
2022/05/18 09:36:46;;;;;;;;;;;;;;;24.48;48.92;97337.28;4203200;28;5792;-72
2022/05/18 09:38:59;;;;;;;;;;;;;;;24.49;48.90;97340.81;4203666;28;5685;-72
2022/05/18 09:41:07;;;;;;;;;;;;;;;24.49;49.11;97332.69;4203533;28;5722;-72
2022/05/18 09:43:15;;;;;;;;;;;;;;;24.49;48.89;97328.09;4203120;28;5693;-72
2022/05/18 09:45:22;;;;;;;;;;;;;;;24.53;49.25;97331.06;4203084;28;5835;-72
2022/05/18 09:47:29;;;;;;;;;;;;;;;24.55;48.75;97327.00;4202168;28;5802;-72
2022/05/18 09:49:37;;;;;;;;;;;;;;;24.58;49.01;97317.56;4203197;28;5720;-72
2022/05/18 09:51:40;;;;;;;;;;;;;;;24.60;48.71;97326.22;4214569;28;6061;-72
2022/05/18 09:53:43;;;;;;;;;;;;;;;24.62;48.80;97313.25;4219763;28;5676;-72
2022/05/18 09:55:50;;;;;;;;;;;;;;;24.62;48.81;97321.34;4219716;28;7144;-72
2022/05/18 09:57:59;;;;;;;;;;;;;;;24.63;48.91;97306.75;4219813;28;5667;-72
2022/05/18 10:00:08;;;;;;;;;;;;;;;24.64;48.54;97314.59;4220139;28;5680;-72
2022/05/18 10:09:40;;;;;;;;;;;;;;;24.71;48.45;97298.09;4219758;28;5763;-72
2022/05/18 10:11:44;;;;;;;;;;;;;;;24.72;48.69;97299.72;4218499;28;5707;-72
2022/05/18 10:13:57;;;;;;;;;;;;;;;24.73;48.46;97295.13;4219374;28;5849;-72
2022/05/18 10:16:14;;;;;;;;;;;;;;;24.74;48.53;97292.16;4219448;28;5660;-72
2022/05/18 10:18:24;;;;;;;;;;;;;;;24.77;48.41;97290.78;4219270;28;5660;-71
2022/05/18 10:20:31;;;;;;;;;;;;;;;24.80;48.59;97293.75;4219766;28;5081;-72
2022/05/18 10:22:40;;;;;;;;;;;;;;;24.83;48.05;97292.41;4219557;28;6376;-71
2022/05/18 10:24:51;;;;;;;;;;;;;;;24.84;48.33;97292.13;4219329;28;5675;-72
2022/05/18 10:27:12;;;;;;;;;;;;;;;24.86;48.02;97289.97;4219265;28;6384;-72
2022/05/18 10:29:22;;;;;;;;;;;;;;;24.87;48.14;97291.59;4219568;28;5664;-72
2022/05/18 10:31:30;;;;;;;;;;;;;;;24.88;48.54;97281.59;4218932;28;5679;-72
2022/05/18 10:33:36;;;;;;;;;;;;;;;24.87;48.01;97280.78;4216469;28;5838;-72
2022/05/18 10:35:48;;;;;;;;;;;;;;;24.90;48.14;97280.22;4212672;28;5687;-72
2022/05/18 10:37:52;;;;;;;;;;;;;;;24.91;48.27;97278.31;4219085;28;6450;-72
2022/05/18 10:39:59;;;;;;;;;;;;;;;24.92;48.00;97283.47;4217883;28;5778;-72
2022/05/18 10:42:08;;;;;;;;;;;;;;;24.95;47.95;97277.53;4219199;28;5671;-71
2022/05/18 10:44:20;;;;;;;;;;;;;;;24.97;48.27;97274.53;4218917;28;5668;-72
2022/05/18 10:46:31;;;;;;;;;;;;;;;24.98;48.42;97274.25;4219494;28;5672;-72
2022/05/18 10:48:35;;;;;;;;;;;;;;;24.98;48.02;97259.94;4218512;28;5762;-72
2022/05/18 10:50:40;;;;;;;;;;;;;;;25.00;48.18;97273.19;4217558;28;5747;-72
2022/05/18 10:52:43;;;;;;;;;;;;;;;25.02;48.18;97266.44;4217705;28;5778;-72
2022/05/18 10:54:57;;;;;;;;;;;;;;;25.04;48.15;97258.06;4219026;28;5823;-73
2022/05/18 10:57:12;;;;;;;;;;;;;;;25.06;47.92;97261.31;4218782;28;5664;-72
2022/05/18 10:59:37;;;;;;;;;;;;;;;25.07;47.95;97258.31;4219132;28;6448;-72
2022/05/18 11:01:50;;;;;;;;;;;;;;;25.09;48.11;97249.94;4218740;28;5695;-72
2022/05/18 11:04:00;;;;;;;;;;;;;;;25.10;48.00;97246.94;4218468;28;5664;-72
2022/05/18 11:06:08;;;;;;;;;;;;;;;25.12;47.95;97254.78;4218606;28;5671;-72
2022/05/18 11:08:14;;;;;;;;;;;;;;;25.14;48.01;97241.78;4218751;28;5668;-72
2022/05/18 11:10:17;;;;;;;;;;;;;;;25.16;48.11;97245.03;4218637;28;5691;-72
2022/05/18 11:12:35;;;;;;;;;;;;;;;25.18;48.20;97249.09;4218735;28;5687;-72
2022/05/18 11:14:47;;;;;;;;;;;;;;;25.22;48.01;97243.94;4218846;28;5736;-72
2022/05/18 11:17:00;;;;;;;;;;;;;;;25.24;47.91;97236.34;4218441;28;6260;-72
2022/05/18 11:19:13;;;;;;;;;;;;;;;25.28;48.14;97242.84;4218449;28;5664;-72
2022/05/18 11:21:28;;;;;;;;;;;;;;;25.30;47.97;97237.16;4218877;28;6413;-72
2022/05/18 11:23:35;;;;;;;;;;;;;;;25.33;47.87;97226.56;4217511;28;5756;-72
2022/05/18 11:25:53;;;;;;;;;;;;;;;25.35;47.93;97234.41;4218525;28;5684;-72
2022/05/18 11:28:25;;;;;;;;;;;;;;;25.35;48.03;97227.09;4216832;28;5680;-72
2022/05/18 11:30:37;;;;;;;;;;;;;;;25.36;47.70;97234.13;4218498;28;5796;-72
2022/05/18 11:32:58;;;;;;;;;;;;;;;25.38;47.58;97231.16;4218187;28;5715;-72
2022/05/18 11:35:21;;;;;;;;;;;;;;;25.41;47.88;97219.78;4208314;28;5664;-72
2022/05/18 11:37:39;;;;;;;;;;;;;;;25.44;47.55;97228.16;4217227;28;5666;-72
2022/05/18 11:39:51;;;;;;;;;;;;;;;25.46;47.52;97225.97;4218265;28;5668;-72
2022/05/18 11:42:13;;;;;;;;;;;;;;;25.48;47.52;97226.53;4213440;28;5817;-72
2022/05/18 11:44:25;;;;;;;;;;;;;;;25.50;47.86;97208.09;4210023;28;5781;-72
2022/05/18 11:47:05;;;;;;;;;;;;;;;25.51;47.63;97212.44;4206039;28;5748;-72
2022/05/18 11:49:17;;;;;;;;;;;;;;;25.53;47.77;97210.25;4213717;28;5676;-72
2022/05/18 11:51:32;;;;;;;;;;;;;;;25.57;47.78;97212.38;4216965;28;5695;-72
2022/05/18 11:53:47;;;;;;;;;;;;;;;25.60;47.45;97204.53;4216515;28;5675;-73
2022/05/18 11:56:02;;;;;;;;;;;;;;;25.63;47.46;97203.97;4210694;28;5834;-72
2022/05/18 11:58:20;;;;;;;;;;;;;;;25.64;47.19;97204.78;4201663;28;5698;-80
2022/05/18 12:00:46;;;;;;;;;;;;;;;25.64;47.61;97202.06;4206699;28;5683;-76
2022/05/18 12:03:30;;;;;;;;;;;;;;;25.63;47.69;97200.44;4218291;28;5809;-77
2022/05/18 12:05:46;;;;;;;;;;;;;;;25.64;47.53;97197.47;4218340;28;5759;-76
2022/05/18 12:08:27;;;;;;;;;;;;;;;25.66;47.30;97197.19;4201385;28;5704;-76
2022/05/18 12:10:40;;;;;;;;;;;;;;;25.67;47.32;97201.50;4215800;28;5767;-71
2022/05/18 12:12:53;;;;;;;;;;;;;;;25.67;47.61;97193.38;4201257;28;5803;-71
2022/05/18 12:15:09;;;;;;;;;;;;;;;25.68;47.61;97193.09;4200911;28;5692;-71
2022/05/18 12:17:17;;;;;;;;;;;;;;;25.69;47.26;97191.19;4201091;28;5690;-71
2022/05/18 12:19:36;;;;;;;;;;;;;;;25.69;47.40;97188.47;4200746;28;5855;-71
2022/05/18 12:21:43;;;;;;;;;;;;;;;25.71;47.22;97191.75;4200730;28;5772;-71
2022/05/18 12:23:49;;;;;;;;;;;;;;;25.72;47.17;97187.97;4200859;28;5689;-72
2022/05/18 12:25:54;;;;;;;;;;;;;;;25.72;47.48;97185.28;4200695;28;5697;-71
2022/05/18 12:28:00;;;;;;;;;;;;;;;25.74;47.33;97183.09;4200926;28;5705;-71
2022/05/18 12:30:08;;;;;;;;;;;;;;;25.75;47.48;97190.91;4200900;28;5697;-71
2022/05/18 12:32:14;;;;;;;;;;;;;;;25.74;47.20;97186.59;4200767;28;5696;-71
2022/05/18 12:34:24;;;;;;;;;;;;;;;25.74;47.23;97181.19;4199897;28;5697;-72
2022/05/18 12:36:34;;;;;;;;;;;;;;;25.77;47.64;97191.44;4200865;28;5708;-71
2022/05/18 12:38:53;;;;;;;;;;;;;;;25.81;47.24;97186.25;4199558;28;5824;-71
2022/05/18 12:41:01;;;;;;;;;;;;;;;25.83;47.40;97184.91;4200762;28;5694;-71
2022/05/18 12:43:16;;;;;;;;;;;;;;;25.87;47.50;97179.75;4200300;28;7706;-71
2022/05/18 12:45:33;;;;;;;;;;;;;;;25.87;47.49;97174.31;4200881;28;5868;-71
2022/05/18 12:47:43;;;;;;;;;;;;;;;25.89;47.19;97182.16;4200846;28;5705;-71
2022/05/18 12:49:56;;;;;;;;;;;;;;;25.90;47.52;97173.75;4200099;28;5704;-71
2022/05/18 12:52:04;;;;;;;;;;;;;;;25.91;47.34;97175.38;4200814;28;5097;-71
2022/05/18 12:54:41;;;;;;;;;;;;;;;25.93;47.36;97178.59;4200482;28;5720;-71
2022/05/18 12:56:50;;;;;;;;;;;;;;;25.94;47.29;97172.13;4204135;28;5869;-71
2022/05/18 12:58:57;;;;;;;;;;;;;;;25.94;47.43;97174.03;4204234;28;5693;-71
2022/05/18 13:01:09;;;;;;;;;;;;;;;25.93;47.39;97175.88;4203967;28;5780;-72
2022/05/18 13:03:46;;;;;;;;;;;;;;;25.95;47.22;97179.16;4203898;28;5697;-71
2022/05/18 13:05:54;;;;;;;;;;;;;;;25.96;47.15;97172.63;4203976;28;5811;-71
2022/05/18 13:08:04;;;;;;;;;;;;;;;25.97;47.43;97176.97;4204071;28;5721;-71
2022/05/18 13:10:12;;;;;;;;;;;;;;;25.98;47.30;97170.44;4204152;28;5752;-71
2022/05/18 13:12:32;;;;;;;;;;;;;;;25.99;47.56;97169.34;4203782;28;5697;-71
2022/05/18 13:14:43;;;;;;;;;;;;;;;25.99;47.22;97172.06;4203349;28;5693;-71
2022/05/18 13:17:19;;;;;;;;;;;;;;;25.98;47.28;97159.63;4203723;28;5716;-72
2022/05/18 13:19:27;;;;;;;;;;;;;;;26.01;47.54;97163.66;4203342;28;5841;-71
2022/05/18 13:21:31;;;;;;;;;;;;;;;26.02;47.21;97157.94;4203293;28;5689;-71
2022/05/18 13:23:42;;;;;;;;;;;;;;;26.03;47.23;97154.13;4203878;28;5721;-71
2022/05/18 13:25:50;;;;;;;;;;;;;;;26.04;47.51;97152.25;4203606;28;5062;-71
2022/05/18 13:27:56;;;;;;;;;;;;;;;26.04;47.47;97154.94;4202207;28;5696;-71
2022/05/18 13:30:01;;;;;;;;;;;;;;;26.05;47.47;97157.41;4203519;28;5663;-71
2022/05/18 13:32:09;;;;;;;;;;;;;;;26.07;47.53;97159.81;4203435;28;5094;-71
2022/05/18 13:34:15;;;;;;;;;;;;;;;26.09;47.28;97149.50;4206665;28;5720;-71
2022/05/18 13:36:39;;;;;;;;;;;;;;;26.09;47.21;97144.09;4207266;28;5681;-71
2022/05/18 13:38:52;;;;;;;;;;;;;;;26.08;47.49;97148.69;4203419;28;5752;-71
2022/05/18 13:41:00;;;;;;;;;;;;;;;26.08;47.08;97150.59;4203266;28;7297;-71
2022/05/18 13:43:06;;;;;;;;;;;;;;;26.08;47.43;97146.00;4202789;28;5704;-71
2022/05/18 13:45:13;;;;;;;;;;;;;;;26.10;47.18;97140.28;4203000;28;5716;-71
2022/05/18 13:47:22;;;;;;;;;;;;;;;26.10;47.14;97140.28;4203169;28;5700;-71
2022/05/18 13:49:38;;;;;;;;;;;;;;;26.10;47.08;97141.09;4202844;28;5685;-71
2022/05/18 13:51:48;;;;;;;;;;;;;;;26.10;47.22;97135.66;4203038;28;5681;-71
2022/05/18 13:53:55;;;;;;;;;;;;;;;26.09;47.03;97134.06;4202931;28;5720;-71
2022/05/18 13:56:03;;;;;;;;;;;;;;;26.11;47.20;97129.16;4203069;28;5697;-70
2022/05/18 13:58:09;;;;;;;;;;;;;;;26.12;47.08;97132.69;4203027;28;5705;-70
2022/05/18 14:00:23;;;;;;;;;;;;;;;26.13;46.85;97132.38;4202925;28;5753;-70
2022/05/18 14:02:31;;;;;;;;;;;;;;;26.15;46.89;97117.75;4201133;28;5686;-70
2022/05/18 14:04:37;;;;;;;;;;;;;;;26.19;46.96;97129.66;4201933;28;5074;-70
2022/05/18 14:07:03;;;;;;;;;;;;;;;26.22;46.93;97121.75;4206613;28;5675;-70
2022/05/18 14:09:08;;;;;;;;;;;;;;;26.22;46.99;97110.91;4207497;28;5668;-70
2022/05/18 14:11:13;;;;;;;;;;;;;;;26.23;46.95;97111.72;4207781;28;5843;-70
2022/05/18 14:13:17;;;;;;;;;;;;;;;26.23;46.69;97120.66;4208897;28;5870;-70
2022/05/18 14:15:20;;;;;;;;;;;;;;;26.23;46.74;97112.53;4203624;28;5775;-70
2022/05/18 14:17:30;;;;;;;;;;;;;;;26.22;46.84;97110.91;4212235;28;5747;-71
2022/05/18 14:19:41;;;;;;;;;;;;;;;26.23;46.66;97103.59;4204759;28;5834;-71
2022/05/18 14:21:51;;;;;;;;;;;;;;;26.24;46.38;97103.28;4197868;28;5806;-69
2022/05/18 14:24:07;;;;;;;;;;;;;;;26.26;46.37;97094.88;4211225;28;5850;-67
2022/05/18 14:26:15;;;;;;;;;;;;;;;26.28;46.49;97098.13;4200211;28;5791;-66
2022/05/18 14:28:24;;;;;;;;;;;;;;;26.29;46.37;97102.44;4206349;28;5771;-67
2022/05/18 14:30:32;;;;;;;;;;;;;;;26.31;46.35;97095.66;4204116;28;5771;-67
2022/05/18 14:33:02;;;;;;;;;;;;;;;26.31;46.42;97097.56;4205562;28;5799;-68
2022/05/18 14:35:06;;;;;;;;;;;;;;;26.30;46.22;97087.81;4203072;28;5891;-72
2022/05/18 14:37:12;;;;;;;;;;;;;;;26.30;46.60;97085.09;4204552;28;5771;-72
2022/05/18 14:39:23;;;;;;;;;;;;;;;26.31;46.40;97089.41;4206621;28;5846;-75
2022/05/18 14:41:34;;;;;;;;;;;;;;;26.32;46.25;97096.44;4216360;28;5668;-78
2022/05/18 14:43:40;;;;;;;;;;;;;;;26.33;46.32;97087.22;4207929;28;5796;-78
2022/05/18 14:45:46;;;;;;;;;;;;;;;26.34;46.19;97088.84;4200032;28;5843;-78
2022/05/18 14:47:51;;;;;;;;;;;;;;;26.33;46.19;97082.59;4204172;28;5814;-78
2022/05/18 14:49:56;;;;;;;;;;;;;;;26.32;46.20;97089.13;4218370;28;5664;-78
2022/05/18 14:52:05;;;;;;;;;;;;;;;26.33;46.38;97084.50;4207744;28;6597;-78
2022/05/18 14:54:18;;;;;;;;;;;;;;;26.34;46.31;97080.72;4210919;28;5705;-78
2022/05/18 14:56:21;;;;;;;;;;;;;;;26.34;46.48;97080.72;4217334;28;7173;-77
2022/05/18 14:58:27;;;;;;;;;;;;;;;26.34;46.12;97088.84;4207261;28;5668;-77
2022/05/18 15:00:35;;;;;;;;;;;;;;;26.32;46.20;97078.28;4202324;28;5764;-77
2022/05/18 15:02:42;;;;;;;;;;;;;;;26.34;46.34;97078.81;4201484;28;5721;-77
2022/05/18 15:04:51;;;;;;;;;;;;;;;26.36;46.29;97075.81;4202148;28;5832;-77
2022/05/18 15:07:04;;;;;;;;;;;;;;;26.36;46.34;97073.94;4204725;28;5835;-77
2022/05/18 15:09:16;;;;;;;;;;;;;;;26.38;46.16;97073.63;4207310;28;5719;-71
2022/05/18 15:11:33;;;;;;;;;;;;;;;26.38;46.23;97070.94;4209192;28;5093;-72
2022/05/18 15:13:46;;;;;;;;;;;;;;;26.38;46.59;97076.34;4208952;28;5806;-76
2022/05/18 15:15:54;;;;;;;;;;;;;;;26.37;46.47;97077.44;4215441;28;5671;-77
2022/05/18 15:18:00;;;;;;;;;;;;;;;26.37;46.58;97070.13;4205377;28;5652;-77
2022/05/18 15:20:07;;;;;;;;;;;;;;;26.37;46.32;97072.03;4204033;28;5782;-76
2022/05/18 15:22:14;;;;;;;;;;;;;;;26.37;46.57;97066.59;4204661;28;5751;-77
2022/05/18 15:24:29;;;;;;;;;;;;;;;26.37;46.34;97058.47;4210374;28;5753;-76
2022/05/18 15:26:36;;;;;;;;;;;;;;;26.35;46.60;97056.03;4201932;28;5705;-76
2022/05/18 15:28:44;;;;;;;;;;;;;;;26.36;46.46;97056.81;4200413;28;5704;-76
2022/05/18 15:30:50;;;;;;;;;;;;;;;26.36;46.38;97052.25;4205622;28;5713;-77
2022/05/18 15:32:53;;;;;;;;;;;;;;;26.36;46.52;97051.41;4205079;28;5752;-77
2022/05/18 15:34:59;;;;;;;;;;;;;;;26.36;46.56;97052.25;4209594;28;5672;-77
2022/05/18 15:37:03;;;;;;;;;;;;;;;26.38;46.32;97049.25;4208013;28;6382;-77
2022/05/18 15:39:07;;;;;;;;;;;;;;;26.38;46.29;97046.53;4209207;28;5684;-77
2022/05/18 15:41:09;;;;;;;;;;;;;;;26.39;46.46;97045.47;4217948;28;5676;-76
2022/05/18 15:43:15;;;;;;;;;;;;;;;26.39;46.61;97048.19;4214405;28;5754;-77
2022/05/18 15:45:18;;;;;;;;;;;;;;;26.38;46.45;97046.53;4210589;28;5751;-76
2022/05/18 15:47:23;;;;;;;;;;;;;;;26.37;46.37;97047.63;4209509;28;5700;-76
2022/05/18 15:49:29;;;;;;;;;;;;;;;26.36;46.08;97040.56;4209663;28;5764;-76
2022/05/18 15:51:33;;;;;;;;;;;;;;;26.38;46.44;97046.53;4205835;28;5796;-76
2022/05/18 15:53:38;;;;;;;;;;;;;;;26.38;46.50;97050.06;4214541;28;5830;-76
2022/05/18 15:55:45;;;;;;;;;;;;;;;26.36;46.33;97040.56;4202685;28;5690;-71
2022/05/18 15:57:49;;;;;;;;;;;;;;;26.37;46.45;97047.63;4202810;28;7731;-69
2022/05/18 15:59:54;;;;;;;;;;;;;;;26.38;46.15;97049.25;4216842;28;5672;-69
2022/05/18 16:01:57;;;;;;;;;;;;;;;26.40;46.54;97049.78;4208500;28;6510;-73
2022/05/18 16:04:00;;;;;;;;;;;;;;;26.40;46.30;97047.06;4206057;28;5704;-73
2022/05/18 16:06:03;;;;;;;;;;;;;;;26.40;46.51;97047.88;4201003;28;5760;-72
2022/05/18 16:08:07;;;;;;;;;;;;;;;26.41;46.26;97054.09;4201034;28;5701;-71
2022/05/18 16:10:11;;;;;;;;;;;;;;;26.43;46.54;97046.50;4211974;28;5709;-80
2022/05/18 16:12:15;;;;;;;;;;;;;;;26.47;46.47;97049.41;4211708;28;5685;-81
2022/05/18 16:14:19;;;;;;;;;;;;;;;26.47;46.39;97052.94;4215506;28;5743;-80
2022/05/18 16:16:23;;;;;;;;;;;;;;;26.47;46.36;97052.94;4210605;28;5110;-81